createdAt,value
2022-10-03T00:00:56.647Z,0.00
2022-10-03T00:01:56.738Z,0.00
2022-10-03T00:02:56.665Z,0.00
2022-10-03T00:03:56.625Z,0.00
2022-10-03T00:04:56.646Z,0.00
2022-10-03T00:05:56.615Z,0.00
2022-10-03T00:06:56.588Z,0.00
2022-10-03T00:07:56.606Z,0.00
2022-10-03T00:08:56.586Z,0.00
2022-10-03T00:09:56.567Z,0.00
2022-10-03T00:10:56.557Z,0.00
2022-10-03T00:11:56.557Z,0.00
2022-10-03T00:12:56.531Z,0.00
2022-10-03T00:13:56.535Z,0.00
2022-10-03T00:14:56.506Z,0.00
2022-10-03T00:15:56.594Z,0.00
2022-10-03T00:16:56.487Z,0.00
2022-10-03T00:17:56.498Z,0.00
2022-10-03T00:18:56.468Z,0.00
2022-10-03T00:19:56.486Z,0.00
2022-10-03T00:20:56.436Z,0.00
2022-10-03T00:21:56.450Z,0.00
2022-10-03T00:22:56.429Z,0.00
2022-10-03T00:23:56.429Z,0.00
2022-10-03T00:24:56.411Z,0.00
2022-10-03T00:25:56.410Z,0.00
2022-10-03T00:26:56.376Z,0.00
2022-10-03T00:27:56.415Z,0.00
2022-10-03T00:28:56.360Z,0.00
2022-10-03T00:29:56.382Z,0.00
2022-10-03T00:30:56.402Z,0.00
2022-10-03T00:31:56.386Z,0.00
2022-10-03T00:32:56.330Z,0.00
2022-10-03T00:33:56.301Z,0.00
2022-10-03T00:34:56.322Z,0.00
2022-10-03T00:35:56.330Z,0.00
2022-10-03T00:36:56.281Z,0.00
2022-10-03T00:37:56.281Z,0.00
2022-10-03T00:38:56.262Z,0.00
2022-10-03T00:39:56.250Z,0.00
2022-10-03T00:40:56.245Z,0.00
2022-10-03T00:41:56.231Z,0.00
2022-10-03T00:42:56.210Z,0.00
2022-10-03T00:43:56.202Z,0.00
2022-10-03T00:44:56.192Z,0.00
2022-10-03T00:45:56.205Z,0.00
2022-10-03T00:46:56.297Z,0.00
2022-10-03T00:47:56.164Z,0.00
2022-10-03T00:48:56.176Z,0.00
2022-10-03T00:49:56.156Z,0.00
2022-10-03T00:50:56.114Z,0.00
2022-10-03T00:51:56.144Z,0.00
2022-10-03T00:52:56.105Z,0.00
2022-10-03T00:53:56.135Z,0.00
2022-10-03T00:54:56.075Z,0.00
2022-10-03T00:55:56.110Z,0.00
2022-10-03T00:56:56.053Z,0.00
2022-10-03T00:57:56.083Z,0.00
2022-10-03T00:58:56.025Z,0.00
2022-10-03T00:59:56.066Z,0.00
2022-10-03T01:00:56.058Z,0.00
2022-10-03T01:01:56.027Z,0.00
2022-10-03T01:02:55.995Z,0.00
2022-10-03T01:03:55.996Z,0.00
2022-10-03T01:04:55.997Z,0.00
2022-10-03T01:05:55.974Z,0.00
2022-10-03T01:06:55.957Z,0.00
2022-10-03T01:07:55.958Z,0.00
2022-10-03T01:08:55.936Z,0.00
2022-10-03T01:09:55.927Z,0.00
2022-10-03T01:10:55.898Z,0.00
2022-10-03T01:11:55.914Z,0.00
2022-10-03T01:12:55.908Z,0.00
2022-10-03T01:13:55.902Z,0.00
2022-10-03T01:14:55.858Z,0.00
2022-10-03T01:15:55.916Z,0.00
2022-10-03T01:16:55.858Z,0.00
2022-10-03T01:17:55.851Z,0.00
2022-10-03T01:18:55.856Z,0.00
2022-10-03T01:19:55.839Z,0.00
2022-10-03T01:20:55.800Z,0.00
2022-10-03T01:21:55.799Z,0.00
2022-10-03T01:22:55.792Z,0.00
2022-10-03T01:23:55.797Z,0.00
2022-10-03T01:24:55.770Z,0.00
2022-10-03T01:25:55.769Z,0.00
2022-10-03T01:26:55.751Z,0.00
2022-10-03T01:27:55.770Z,0.00
2022-10-03T01:28:55.751Z,0.00
2022-10-03T01:29:55.738Z,0.00
2022-10-03T01:30:55.732Z,0.00
2022-10-03T01:31:55.704Z,0.00
2022-10-03T01:32:55.681Z,0.00
2022-10-03T01:33:55.663Z,0.00
2022-10-03T01:34:55.682Z,0.00
2022-10-03T01:35:55.682Z,0.00
2022-10-03T01:36:55.650Z,0.00
2022-10-03T01:37:55.643Z,0.00
2022-10-03T01:38:55.603Z,0.00
2022-10-03T01:39:55.615Z,0.00
2022-10-03T01:40:55.607Z,0.00
2022-10-03T01:41:55.616Z,0.00
2022-10-03T01:42:55.574Z,0.00
2022-10-03T01:43:55.583Z,0.00
2022-10-03T01:44:55.568Z,0.00
2022-10-03T01:45:55.553Z,0.00
2022-10-03T01:46:55.590Z,0.00
2022-10-03T01:47:55.522Z,0.00
2022-10-03T01:48:55.498Z,0.00
2022-10-03T01:49:55.549Z,0.00
2022-10-03T01:50:55.483Z,0.00
2022-10-03T01:51:55.477Z,0.00
2022-10-03T01:52:55.456Z,0.00
2022-10-03T01:53:55.456Z,0.00
2022-10-03T01:54:55.466Z,0.00
2022-10-03T01:55:55.467Z,0.00
2022-10-03T01:56:55.427Z,0.00
2022-10-03T01:57:55.415Z,0.00
2022-10-03T01:58:55.409Z,0.00
2022-10-03T01:59:55.426Z,0.00
2022-10-03T02:00:55.416Z,0.00
2022-10-03T02:01:55.416Z,0.00
2022-10-03T02:02:55.348Z,0.00
2022-10-03T02:03:55.350Z,0.00
2022-10-03T02:04:55.360Z,0.00
2022-10-03T02:05:55.349Z,0.00
2022-10-03T02:06:55.328Z,0.00
2022-10-03T02:07:55.328Z,0.00
2022-10-03T02:08:55.301Z,0.00
2022-10-03T02:09:55.318Z,0.00
2022-10-03T02:10:55.289Z,0.00
2022-10-03T02:11:55.304Z,0.00
2022-10-03T02:12:55.249Z,0.00
2022-10-03T02:13:55.241Z,0.00
2022-10-03T02:14:55.240Z,0.00
2022-10-03T02:15:55.289Z,0.00
2022-10-03T02:16:55.250Z,0.00
2022-10-03T02:17:55.208Z,0.00
2022-10-03T02:18:55.199Z,0.00
2022-10-03T02:19:55.219Z,0.00
2022-10-03T02:20:55.161Z,0.00
2022-10-03T02:21:55.154Z,0.00
2022-10-03T02:22:55.152Z,0.00
2022-10-03T02:23:55.154Z,0.00
2022-10-03T02:24:55.135Z,0.00
2022-10-03T02:25:55.142Z,0.00
2022-10-03T02:26:58.320Z,0.00
2022-10-03T02:27:55.152Z,0.00
2022-10-03T02:28:55.114Z,0.00
2022-10-03T02:29:55.113Z,0.00
2022-10-03T02:30:55.060Z,0.00
2022-10-03T02:31:55.101Z,0.00
2022-10-03T02:32:55.074Z,0.00
2022-10-03T02:33:55.046Z,0.00
2022-10-03T02:34:55.025Z,0.00
2022-10-03T02:35:55.018Z,0.00
2022-10-03T02:36:54.994Z,0.00
2022-10-03T02:37:55.034Z,0.00
2022-10-03T02:38:54.983Z,0.00
2022-10-03T02:39:54.975Z,0.00
2022-10-03T02:40:54.955Z,0.00
2022-10-03T02:41:54.952Z,0.00
2022-10-03T02:42:54.943Z,0.00
2022-10-03T02:43:54.936Z,0.00
2022-10-03T02:44:54.905Z,0.00
2022-10-03T02:45:54.990Z,0.00
2022-10-03T02:46:54.897Z,0.00
2022-10-03T02:48:08.400Z,0.00
2022-10-03T02:48:55.865Z,0.00
2022-10-03T02:49:54.867Z,0.00
2022-10-03T02:50:54.858Z,0.00
2022-10-03T02:51:54.857Z,0.00
2022-10-03T02:52:54.834Z,0.00
2022-10-03T02:53:54.817Z,0.00
2022-10-03T02:54:54.830Z,0.00
2022-10-03T02:55:54.798Z,0.00
2022-10-03T02:56:54.797Z,0.00
2022-10-03T02:57:54.799Z,0.00
2022-10-03T02:58:54.758Z,0.00
2022-10-03T02:59:54.759Z,0.00
2022-10-03T03:00:54.774Z,0.00
2022-10-03T03:01:54.779Z,0.00
2022-10-03T03:02:54.721Z,0.00
2022-10-03T03:03:54.729Z,0.00
2022-10-03T03:04:54.697Z,0.00
2022-10-03T03:05:54.767Z,0.00
2022-10-03T03:06:54.688Z,0.00
2022-10-03T03:07:54.670Z,0.00
2022-10-03T03:08:54.670Z,0.00
2022-10-03T03:09:54.684Z,0.00
2022-10-03T03:10:54.630Z,0.00
2022-10-03T03:11:54.629Z,0.00
2022-10-03T03:12:54.632Z,0.00
2022-10-03T03:13:54.640Z,0.00
2022-10-03T03:14:54.600Z,0.00
2022-10-03T03:15:54.724Z,0.00
2022-10-03T03:16:54.581Z,0.00
2022-10-03T03:17:54.572Z,0.00
2022-10-03T03:18:54.542Z,0.00
2022-10-03T03:19:54.552Z,0.00
2022-10-03T03:20:54.549Z,0.00
2022-10-03T03:21:54.553Z,0.00
2022-10-03T03:22:54.505Z,0.00
2022-10-03T03:23:54.493Z,0.00
2022-10-03T03:24:54.493Z,0.00
2022-10-03T03:25:54.487Z,0.00
2022-10-03T03:26:54.484Z,0.00
2022-10-03T03:27:54.498Z,0.00
2022-10-03T03:28:55.796Z,0.00
2022-10-03T03:29:54.449Z,0.00
2022-10-03T03:30:54.423Z,0.00
2022-10-03T03:31:54.743Z,0.00
2022-10-03T03:32:54.444Z,0.00
2022-10-03T03:33:54.399Z,0.00
2022-10-03T03:34:54.394Z,0.00
2022-10-03T03:35:54.389Z,0.00
2022-10-03T03:36:54.362Z,0.00
2022-10-03T03:37:54.389Z,0.00
2022-10-03T03:38:54.365Z,0.00
2022-10-03T03:39:54.335Z,0.00
2022-10-03T03:40:54.318Z,0.00
2022-10-03T03:41:54.317Z,0.00
2022-10-03T03:42:54.307Z,0.00
2022-10-03T03:43:54.307Z,0.00
2022-10-03T03:44:54.296Z,0.00
2022-10-03T03:45:54.344Z,0.00
2022-10-03T03:46:54.247Z,0.00
2022-10-03T03:47:54.248Z,0.00
2022-10-03T03:48:54.237Z,0.00
2022-10-03T03:49:54.240Z,0.00
2022-10-03T03:50:54.241Z,0.00
2022-10-03T03:51:54.207Z,0.00
2022-10-03T03:52:54.198Z,0.00
2022-10-03T03:53:54.202Z,0.00
2022-10-03T03:54:54.188Z,0.00
2022-10-03T03:55:54.170Z,0.00
2022-10-03T03:56:54.170Z,0.00
2022-10-03T03:57:54.160Z,0.00
2022-10-03T03:58:54.119Z,0.00
2022-10-03T03:59:54.140Z,0.00
2022-10-03T04:00:54.200Z,0.00
2022-10-03T04:01:54.208Z,0.00
2022-10-03T04:02:54.089Z,0.00
2022-10-03T04:03:54.090Z,0.00
2022-10-03T04:04:54.080Z,0.00
2022-10-03T04:05:54.066Z,0.00
2022-10-03T04:06:54.061Z,0.00
2022-10-03T04:07:54.031Z,0.00
2022-10-03T04:08:54.041Z,0.00
2022-10-03T04:09:54.032Z,0.00
2022-10-03T04:10:54.001Z,0.00
2022-10-03T04:11:53.995Z,0.00
2022-10-03T04:12:53.992Z,0.00
2022-10-03T04:13:53.972Z,0.00
2022-10-03T04:14:53.981Z,0.00
2022-10-03T04:15:53.984Z,0.00
2022-10-03T04:16:53.979Z,0.00
2022-10-03T04:17:53.935Z,0.00
2022-10-03T04:18:53.952Z,0.00
2022-10-03T04:19:53.904Z,0.00
2022-10-03T04:20:53.914Z,0.00
2022-10-03T04:21:53.904Z,0.00
2022-10-03T04:22:53.883Z,0.00
2022-10-03T04:23:53.876Z,0.00
2022-10-03T04:24:53.864Z,0.00
2022-10-03T04:25:53.834Z,0.00
2022-10-03T04:26:53.845Z,0.00
2022-10-03T04:27:53.851Z,0.00
2022-10-03T04:28:53.805Z,0.00
2022-10-03T04:29:56.749Z,0.00
2022-10-03T04:30:53.798Z,0.00
2022-10-03T04:31:53.809Z,0.00
2022-10-03T04:32:53.776Z,0.00
2022-10-03T04:33:53.756Z,0.00
2022-10-03T04:34:53.745Z,0.00
2022-10-03T04:35:53.736Z,0.00
2022-10-03T04:36:53.736Z,0.00
2022-10-03T04:37:53.746Z,0.00
2022-10-03T04:38:53.705Z,0.00
2022-10-03T04:39:53.708Z,0.00
2022-10-03T04:40:53.697Z,0.00
2022-10-03T04:41:53.678Z,0.00
2022-10-03T04:42:53.678Z,0.00
2022-10-03T04:43:53.668Z,0.00
2022-10-03T04:44:53.669Z,0.00
2022-10-03T04:45:53.765Z,0.00
2022-10-03T04:46:53.649Z,0.00
2022-10-03T04:47:53.609Z,0.00
2022-10-03T04:48:53.620Z,0.00
2022-10-03T04:49:53.599Z,0.00
2022-10-03T04:50:53.612Z,0.00
2022-10-03T04:51:55.641Z,0.00
2022-10-03T04:52:53.560Z,0.00
2022-10-03T04:53:54.620Z,0.00
2022-10-03T04:54:53.550Z,0.00
2022-10-03T04:55:53.558Z,0.00
2022-10-03T04:56:53.571Z,0.00
2022-10-03T04:57:53.497Z,0.00
2022-10-03T04:58:53.501Z,0.00
2022-10-03T04:59:53.512Z,0.00
2022-10-03T05:00:53.516Z,4.00
2022-10-03T05:01:53.493Z,4.00
2022-10-03T05:02:53.480Z,0.00
2022-10-03T05:03:53.452Z,4.00
2022-10-03T05:04:55.635Z,4.00
2022-10-03T05:05:53.432Z,4.00
2022-10-03T05:06:53.421Z,4.00
2022-10-03T05:07:53.392Z,8.00
2022-10-03T05:08:53.440Z,8.00
2022-10-03T05:09:53.383Z,8.00
2022-10-03T05:10:53.371Z,4.00
2022-10-03T05:11:53.363Z,8.00
2022-10-03T05:12:53.353Z,8.00
2022-10-03T05:13:53.344Z,8.00
2022-10-03T05:14:53.335Z,12.00
2022-10-03T05:15:53.324Z,12.00
2022-10-03T05:16:53.460Z,16.00
2022-10-03T05:17:53.294Z,20.00
2022-10-03T05:18:53.305Z,24.00
2022-10-03T05:19:53.266Z,32.00
2022-10-03T05:20:55.255Z,36.00
2022-10-03T05:21:53.275Z,40.00
2022-10-03T05:22:54.223Z,44.00
2022-10-03T05:23:53.245Z,44.00
2022-10-03T05:24:54.195Z,56.00
2022-10-03T05:25:53.216Z,60.00
2022-10-03T05:26:54.704Z,64.00
2022-10-03T05:27:53.251Z,68.00
2022-10-03T05:28:54.146Z,88.00
2022-10-03T05:29:53.176Z,100.00
2022-10-03T05:30:53.876Z,100.00
2022-10-03T05:31:53.197Z,100.00
2022-10-03T05:32:53.847Z,108.00
2022-10-03T05:33:53.138Z,116.00
2022-10-03T05:34:53.817Z,120.00
2022-10-03T05:35:53.128Z,120.00
2022-10-03T05:36:54.060Z,120.00
2022-10-03T05:37:53.087Z,132.00
2022-10-03T05:38:53.789Z,140.00
2022-10-03T05:39:53.073Z,120.00
2022-10-03T05:40:53.081Z,124.00
2022-10-03T05:42:17.925Z,136.00
2022-10-03T05:42:55.020Z,144.00
2022-10-03T05:43:53.067Z,152.00
2022-10-03T05:44:53.032Z,152.00
2022-10-03T05:45:53.066Z,156.00
2022-10-03T05:46:53.979Z,152.00
2022-10-03T05:47:53.001Z,156.00
2022-10-03T05:48:53.679Z,184.00
2022-10-03T05:49:52.951Z,192.00
2022-10-03T05:50:53.661Z,176.00
2022-10-03T05:51:52.991Z,180.00
2022-10-03T05:52:52.970Z,184.00
2022-10-03T05:53:52.921Z,216.00
2022-10-03T05:54:53.616Z,272.00
2022-10-03T05:55:52.899Z,284.00
2022-10-03T05:56:52.870Z,280.00
2022-10-03T05:57:52.882Z,292.00
2022-10-03T05:58:52.882Z,336.00
2022-10-03T05:59:53.109Z,384.00
2022-10-03T06:00:52.844Z,460.00
2022-10-03T06:01:53.572Z,516.00
2022-10-03T06:02:52.999Z,564.00
2022-10-03T06:03:53.993Z,628.00
2022-10-03T06:04:52.824Z,684.00
2022-10-03T06:05:53.814Z,720.00
2022-10-03T06:06:52.773Z,708.00
2022-10-03T06:07:52.760Z,696.00
2022-10-03T06:08:52.782Z,700.00
2022-10-03T06:09:52.733Z,700.00
2022-10-03T06:10:52.747Z,692.00
2022-10-03T06:11:52.733Z,680.00
2022-10-03T06:12:52.701Z,680.00
2022-10-03T06:13:52.705Z,736.00
2022-10-03T06:14:52.685Z,812.00
2022-10-03T06:15:52.716Z,904.00
2022-10-03T06:16:52.775Z,928.00
2022-10-03T06:17:52.666Z,920.00
2022-10-03T06:18:52.643Z,892.00
2022-10-03T06:19:52.626Z,888.00
2022-10-03T06:20:52.633Z,936.00
2022-10-03T06:21:52.637Z,996.00
2022-10-03T06:22:52.596Z,1028.00
2022-10-03T06:23:52.594Z,1084.00
2022-10-03T06:24:52.586Z,1160.00
2022-10-03T06:25:52.560Z,1200.00
2022-10-03T06:26:52.585Z,1256.00
2022-10-03T06:27:52.589Z,1392.00
2022-10-03T06:28:52.548Z,1536.00
2022-10-03T06:29:52.558Z,1660.00
2022-10-03T06:30:52.574Z,1848.00
2022-10-03T06:31:52.508Z,1880.00
2022-10-03T06:32:52.487Z,1716.00
2022-10-03T06:33:52.476Z,1708.00
2022-10-03T06:34:52.510Z,1852.00
2022-10-03T06:35:52.448Z,1816.00
2022-10-03T06:36:52.459Z,1732.00
2022-10-03T06:37:52.440Z,1744.00
2022-10-03T06:38:52.441Z,1712.00
2022-10-03T06:39:52.409Z,1732.00
2022-10-03T06:40:52.422Z,1808.00
2022-10-03T06:41:52.390Z,1880.00
2022-10-03T06:42:52.403Z,1868.00
2022-10-03T06:43:52.367Z,1924.00
2022-10-03T06:44:52.379Z,1968.00
2022-10-03T06:45:52.393Z,1984.00
2022-10-03T06:46:52.358Z,1944.00
2022-10-03T06:47:52.321Z,1960.00
2022-10-03T06:48:52.332Z,2004.00
2022-10-03T06:49:52.319Z,2124.00
2022-10-03T06:50:52.291Z,2184.00
2022-10-03T06:51:52.292Z,2172.00
2022-10-03T06:52:52.277Z,2356.00
2022-10-03T06:53:52.272Z,2420.00
2022-10-03T06:54:52.272Z,2328.00
2022-10-03T06:55:52.737Z,2180.00
2022-10-03T06:56:52.237Z,2056.00
2022-10-03T06:57:52.232Z,2000.00
2022-10-03T06:58:52.253Z,2004.00
2022-10-03T06:59:52.210Z,2108.00
2022-10-03T07:00:52.196Z,1992.00
2022-10-03T07:01:52.203Z,1804.00
2022-10-03T07:02:52.204Z,1580.00
2022-10-03T07:03:52.162Z,1472.00
2022-10-03T07:04:52.165Z,1540.00
2022-10-03T07:05:52.157Z,1612.00
2022-10-03T07:06:52.142Z,1572.00
2022-10-03T07:07:52.119Z,1464.00
2022-10-03T07:08:52.102Z,1380.00
2022-10-03T07:09:52.106Z,1380.00
2022-10-03T07:10:52.117Z,1416.00
2022-10-03T07:11:52.065Z,1576.00
2022-10-03T07:12:52.080Z,1888.00
2022-10-03T07:13:52.068Z,2228.00
2022-10-03T07:14:52.036Z,2392.00
2022-10-03T07:16:14.177Z,2448.00
2022-10-03T07:16:53.062Z,2472.00
2022-10-03T07:17:52.021Z,2496.00
2022-10-03T07:18:52.037Z,2584.00
2022-10-03T07:19:51.977Z,2676.00
2022-10-03T07:20:51.994Z,2728.00
2022-10-03T07:21:51.986Z,2772.00
2022-10-03T07:22:51.969Z,2780.00
2022-10-03T07:23:51.960Z,2780.00
2022-10-03T07:24:51.930Z,2768.00
2022-10-03T07:25:51.909Z,2804.00
2022-10-03T07:26:51.943Z,2848.00
2022-10-03T07:27:52.106Z,2884.00
2022-10-03T07:28:51.898Z,2896.00
2022-10-03T07:29:51.868Z,2976.00
2022-10-03T07:30:51.903Z,3008.00
2022-10-03T07:31:51.878Z,2992.00
2022-10-03T07:32:51.877Z,2920.00
2022-10-03T07:33:51.841Z,2884.00
2022-10-03T07:34:51.821Z,2896.00
2022-10-03T07:35:51.807Z,2968.00
2022-10-03T07:36:51.800Z,3048.00
2022-10-03T07:37:51.812Z,3076.00
2022-10-03T07:38:51.771Z,3008.00
2022-10-03T07:39:51.771Z,3020.00
2022-10-03T07:40:51.772Z,3092.00
2022-10-03T07:41:51.754Z,3172.00
2022-10-03T07:42:51.762Z,3304.00
2022-10-03T07:43:51.719Z,3468.00
2022-10-03T07:44:51.734Z,3464.00
2022-10-03T07:45:51.713Z,3396.00
2022-10-03T07:46:51.694Z,3364.00
2022-10-03T07:47:51.701Z,3424.00
2022-10-03T07:48:51.677Z,3520.00
2022-10-03T07:49:51.658Z,3588.00
2022-10-03T07:50:51.930Z,3676.00
2022-10-03T07:51:51.642Z,3768.00
2022-10-03T07:52:51.630Z,3836.00
2022-10-03T07:53:51.623Z,3952.00
2022-10-03T07:54:51.633Z,4016.00
2022-10-03T07:55:51.595Z,4144.00
2022-10-03T07:56:51.617Z,4136.00
2022-10-03T07:57:51.575Z,3868.00
2022-10-03T07:58:51.565Z,3464.00
2022-10-03T07:59:51.545Z,3132.00
2022-10-03T08:00:51.606Z,2860.00
2022-10-03T08:01:51.548Z,2788.00
2022-10-03T08:02:51.647Z,2676.00
2022-10-03T08:03:51.525Z,2484.00
2022-10-03T08:04:51.509Z,2316.00
2022-10-03T08:05:51.766Z,2160.00
2022-10-03T08:06:51.478Z,2076.00
2022-10-03T08:07:51.461Z,2124.00
2022-10-03T08:08:51.467Z,2168.00
2022-10-03T08:09:51.470Z,2060.00
2022-10-03T08:10:51.447Z,2020.00
2022-10-03T08:11:51.428Z,2108.00
2022-10-03T08:12:51.430Z,2232.00
2022-10-03T08:13:51.436Z,2352.00
2022-10-03T08:14:51.408Z,2436.00
2022-10-03T08:15:51.438Z,2520.00
2022-10-03T08:16:51.367Z,2588.00
2022-10-03T08:17:51.349Z,2608.00
2022-10-03T08:18:51.359Z,2652.00
2022-10-03T08:19:51.370Z,2728.00
2022-10-03T08:20:51.336Z,2832.00
2022-10-03T08:21:51.350Z,2940.00
2022-10-03T08:22:51.320Z,2976.00
2022-10-03T08:23:51.309Z,2968.00
2022-10-03T08:24:51.284Z,2992.00
2022-10-03T08:25:51.270Z,3092.00
2022-10-03T08:26:51.291Z,3220.00
2022-10-03T08:27:51.332Z,3344.00
2022-10-03T08:28:51.252Z,3440.00
2022-10-03T08:29:51.242Z,3496.00
2022-10-03T08:30:51.264Z,3552.00
2022-10-03T08:31:51.220Z,3536.00
2022-10-03T08:32:51.211Z,3396.00
2022-10-03T08:33:51.199Z,3200.00
2022-10-03T08:34:51.194Z,3060.00
2022-10-03T08:35:51.204Z,2992.00
2022-10-03T08:36:51.152Z,2948.00
2022-10-03T08:37:51.174Z,2936.00
2022-10-03T08:38:51.133Z,2904.00
2022-10-03T08:39:51.133Z,2768.00
2022-10-03T08:40:51.103Z,2612.00
2022-10-03T08:41:51.125Z,2496.00
2022-10-03T08:42:51.083Z,2428.00
2022-10-03T08:43:51.082Z,2432.00
2022-10-03T08:44:51.073Z,2488.00
2022-10-03T08:45:51.067Z,2572.00
2022-10-03T08:46:51.074Z,2672.00
2022-10-03T08:47:51.045Z,2788.00
2022-10-03T08:48:51.025Z,2904.00
2022-10-03T08:49:51.035Z,2996.00
2022-10-03T08:50:51.027Z,3080.00
2022-10-03T08:51:51.015Z,3156.00
2022-10-03T08:52:50.994Z,3196.00
2022-10-03T08:53:51.107Z,3180.00
2022-10-03T08:54:50.989Z,3148.00
2022-10-03T08:55:50.967Z,3144.00
2022-10-03T08:56:50.937Z,3220.00
2022-10-03T08:57:50.948Z,3312.00
2022-10-03T08:58:50.927Z,3364.00
2022-10-03T08:59:50.927Z,3332.00
2022-10-03T09:00:50.895Z,3264.00
2022-10-03T09:01:51.087Z,3336.00
2022-10-03T09:03:06.524Z,3496.00
2022-10-03T09:03:51.887Z,3652.00
2022-10-03T09:04:50.878Z,3768.00
2022-10-03T09:05:50.943Z,3836.00
2022-10-03T09:07:15.445Z,3876.00
2022-10-03T09:07:51.819Z,3916.00
2022-10-03T09:08:50.810Z,3972.00
2022-10-03T09:09:50.807Z,4084.00
2022-10-03T09:10:50.780Z,4172.00
2022-10-03T09:11:50.810Z,4160.00
2022-10-03T09:12:50.780Z,4100.00
2022-10-03T09:13:50.759Z,4100.00
2022-10-03T09:14:50.752Z,4020.00
2022-10-03T09:15:50.815Z,4052.00
2022-10-03T09:16:50.732Z,4440.00
2022-10-03T09:17:50.756Z,4988.00
2022-10-03T09:18:50.701Z,5784.00
2022-10-03T09:19:50.723Z,6392.00
2022-10-03T09:20:50.691Z,6580.00
2022-10-03T09:21:50.672Z,6584.00
2022-10-03T09:22:50.673Z,6656.00
2022-10-03T09:23:50.673Z,6636.00
2022-10-03T09:24:50.676Z,6776.00
2022-10-03T09:25:50.631Z,6872.00
2022-10-03T09:26:50.674Z,7148.00
2022-10-03T09:27:50.630Z,7400.00
2022-10-03T09:28:50.603Z,7584.00
2022-10-03T09:29:50.609Z,7568.00
2022-10-03T09:30:50.603Z,7380.00
2022-10-03T09:31:50.617Z,7020.00
2022-10-03T09:32:50.567Z,6836.00
2022-10-03T09:33:50.554Z,6820.00
2022-10-03T09:34:50.555Z,6944.00
2022-10-03T09:35:50.578Z,7392.00
2022-10-03T09:36:50.505Z,7632.00
2022-10-03T09:37:50.516Z,7664.00
2022-10-03T09:38:50.506Z,7868.00
2022-10-03T09:39:50.485Z,7792.00
2022-10-03T09:40:53.472Z,7376.00
2022-10-03T09:41:50.468Z,6636.00
2022-10-03T09:42:50.476Z,6124.00
2022-10-03T09:43:50.448Z,6188.00
2022-10-03T09:44:50.437Z,6632.00
2022-10-03T09:45:50.415Z,6300.00
2022-10-03T09:46:50.470Z,6176.00
2022-10-03T09:47:50.408Z,6252.00
2022-10-03T09:48:50.389Z,6664.00
2022-10-03T09:49:50.376Z,6876.00
2022-10-03T09:50:50.369Z,6920.00
2022-10-03T09:51:50.397Z,6840.00
2022-10-03T09:52:50.357Z,6768.00
2022-10-03T09:53:50.351Z,6504.00
2022-10-03T09:54:50.319Z,6756.00
2022-10-03T09:55:50.340Z,6792.00
2022-10-03T09:56:50.310Z,7176.00
2022-10-03T09:57:50.322Z,8084.00
2022-10-03T09:58:50.282Z,8712.00
2022-10-03T09:59:50.268Z,9424.00
2022-10-03T10:00:50.379Z,9568.00
2022-10-03T10:01:50.270Z,9804.00
2022-10-03T10:02:50.275Z,9968.00
2022-10-03T10:03:50.297Z,9036.00
2022-10-03T10:04:55.309Z,7292.00
2022-10-03T10:05:51.221Z,6728.00
2022-10-03T10:06:50.192Z,6212.00
2022-10-03T10:07:50.185Z,5900.00
2022-10-03T10:08:50.172Z,5592.00
2022-10-03T10:09:50.192Z,5568.00
2022-10-03T10:10:50.173Z,5876.00
2022-10-03T10:11:50.144Z,5992.00
2022-10-03T10:12:50.135Z,6032.00
2022-10-03T10:14:07.376Z,5668.00
2022-10-03T10:14:51.156Z,5352.00
2022-10-03T10:15:50.165Z,5180.00
2022-10-03T10:16:50.500Z,5648.00
2022-10-03T10:17:50.075Z,6560.00
2022-10-03T10:18:50.056Z,6800.00
2022-10-03T10:19:50.066Z,7236.00
2022-10-03T10:20:50.054Z,7384.00
2022-10-03T10:21:50.056Z,7580.00
2022-10-03T10:22:50.049Z,8204.00
2022-10-03T10:23:50.037Z,7312.00
2022-10-03T10:24:50.010Z,6820.00
2022-10-03T10:25:50.008Z,7116.00
2022-10-03T10:26:49.997Z,8560.00
2022-10-03T10:27:50.032Z,9564.00
2022-10-03T10:28:49.970Z,9224.00
2022-10-03T10:29:49.961Z,8232.00
2022-10-03T10:30:49.937Z,7880.00
2022-10-03T10:31:49.968Z,9176.00
2022-10-03T10:32:49.928Z,9800.00
2022-10-03T10:33:49.929Z,9884.00
2022-10-03T10:34:49.912Z,9488.00
2022-10-03T10:35:49.890Z,8968.00
2022-10-03T10:36:49.868Z,8596.00
2022-10-03T10:37:49.861Z,7976.00
2022-10-03T10:38:49.860Z,7288.00
2022-10-03T10:39:49.871Z,6336.00
2022-10-03T10:40:49.843Z,5648.00
2022-10-03T10:41:49.821Z,5340.00
2022-10-03T10:42:49.812Z,5296.00
2022-10-03T10:43:49.812Z,5560.00
2022-10-03T10:44:49.851Z,6148.00
2022-10-03T10:45:49.782Z,6804.00
2022-10-03T10:46:49.815Z,7468.00
2022-10-03T10:47:49.761Z,7872.00
2022-10-03T10:48:49.744Z,8332.00
2022-10-03T10:49:49.902Z,8512.00
2022-10-03T10:50:50.241Z,8216.00
2022-10-03T10:51:49.824Z,7600.00
2022-10-03T10:52:49.713Z,7492.00
2022-10-03T10:53:49.705Z,8352.00
2022-10-03T10:54:49.715Z,9468.00
2022-10-03T10:55:49.686Z,10100.00
2022-10-03T10:56:49.654Z,10460.00
2022-10-03T10:57:51.147Z,10988.00
2022-10-03T10:58:50.286Z,10676.00
2022-10-03T10:59:49.626Z,9556.00
2022-10-03T11:00:49.882Z,8916.00
2022-10-03T11:01:49.627Z,8312.00
2022-10-03T11:02:49.596Z,7212.00
2022-10-03T11:03:49.598Z,7344.00
2022-10-03T11:04:49.605Z,7364.00
2022-10-03T11:05:49.560Z,7212.00
2022-10-03T11:06:49.539Z,7196.00
2022-10-03T11:07:53.857Z,7280.00
2022-10-03T11:08:49.548Z,8680.00
2022-10-03T11:09:49.518Z,9408.00
2022-10-03T11:10:49.507Z,10428.00
2022-10-03T11:11:49.537Z,10592.00
2022-10-03T11:12:49.499Z,9944.00
2022-10-03T11:13:49.480Z,9732.00
2022-10-03T11:14:49.470Z,9068.00
2022-10-03T11:15:49.556Z,9096.00
2022-10-03T11:16:49.473Z,8756.00
2022-10-03T11:17:49.452Z,8428.00
2022-10-03T11:18:49.419Z,8080.00
2022-10-03T11:19:49.492Z,7112.00
2022-10-03T11:20:49.411Z,6420.00
2022-10-03T11:21:49.395Z,6772.00
2022-10-03T11:22:49.394Z,7644.00
2022-10-03T11:23:49.392Z,7676.00
2022-10-03T11:24:49.362Z,7720.00
2022-10-03T11:25:49.372Z,8084.00
2022-10-03T11:26:49.342Z,8260.00
2022-10-03T11:27:49.422Z,8636.00
2022-10-03T11:28:49.387Z,9196.00
2022-10-03T11:29:49.305Z,10208.00
2022-10-03T11:30:49.294Z,11340.00
2022-10-03T11:31:49.414Z,12268.00
2022-10-03T11:32:49.275Z,13376.00
2022-10-03T11:33:49.285Z,14448.00
2022-10-03T11:34:49.266Z,15492.00
2022-10-03T11:35:49.263Z,13432.00
2022-10-03T11:36:49.255Z,12484.00
2022-10-03T11:37:49.237Z,11980.00
2022-10-03T11:38:49.203Z,9984.00
2022-10-03T11:39:49.197Z,10796.00
2022-10-03T11:40:49.225Z,11724.00
2022-10-03T11:41:49.219Z,15348.00
2022-10-03T11:42:49.158Z,14148.00
2022-10-03T11:43:49.171Z,12192.00
2022-10-03T11:44:49.145Z,11728.00
2022-10-03T11:45:49.246Z,13300.00
2022-10-03T11:46:49.137Z,15456.00
2022-10-03T11:47:49.130Z,19200.00
2022-10-03T11:48:49.131Z,14520.00
2022-10-03T11:49:49.090Z,11444.00
2022-10-03T11:50:49.100Z,12296.00
2022-10-03T11:51:53.441Z,17792.00
2022-10-03T11:52:49.061Z,47840.00
2022-10-03T11:53:49.322Z,52224.00
2022-10-03T11:54:49.049Z,16960.00
2022-10-03T11:55:49.032Z,26592.00
2022-10-03T11:56:49.027Z,47520.00
2022-10-03T11:57:49.062Z,56512.00
2022-10-03T11:58:49.002Z,63584.00
2022-10-03T11:59:49.014Z,61600.00
2022-10-03T12:00:48.971Z,63712.00
2022-10-03T12:01:51.512Z,64832.00
2022-10-03T12:02:49.112Z,64096.00
2022-10-03T12:03:49.009Z,61344.00
2022-10-03T12:04:48.993Z,52896.00
2022-10-03T12:05:48.935Z,56352.00
2022-10-03T12:06:48.914Z,53728.00
2022-10-03T12:07:48.913Z,56640.00
2022-10-03T12:08:48.918Z,65760.00
2022-10-03T12:09:48.885Z,67552.00
2022-10-03T12:10:48.879Z,79200.00
2022-10-03T12:11:48.878Z,44544.00
2022-10-03T12:12:48.848Z,38816.00
2022-10-03T12:13:48.848Z,39040.00
2022-10-03T12:14:48.849Z,15264.00
2022-10-03T12:15:48.853Z,21120.00
2022-10-03T12:16:48.867Z,23360.00
2022-10-03T12:17:48.817Z,20256.00
2022-10-03T12:18:48.804Z,33152.00
2022-10-03T12:19:48.793Z,31168.00
2022-10-03T12:20:48.799Z,21920.00
2022-10-03T12:21:48.764Z,47232.00
2022-10-03T12:22:48.743Z,27040.00
2022-10-03T12:23:48.753Z,32192.00
2022-10-03T12:24:48.775Z,36192.00
2022-10-03T12:25:48.735Z,14512.00
2022-10-03T12:26:48.714Z,11416.00
2022-10-03T12:27:48.734Z,9788.00
2022-10-03T12:28:48.685Z,9956.00
2022-10-03T12:29:48.696Z,9504.00
2022-10-03T12:30:48.676Z,9460.00
2022-10-03T12:31:48.849Z,13544.00
2022-10-03T12:32:48.677Z,19552.00
2022-10-03T12:33:48.648Z,27072.00
2022-10-03T12:34:48.648Z,64896.00